METAR Data
IDs: Format: Raw Decoded Include TAF

Data at: 1958 UTC 17 Nov 2019

METAR for:EBBE (Beauvechain(AB), --, BX)
Text:EBBE 171925Z AUTO 34006KT 9999 FEW120/// BKN130/// 04/03 Q1009 BLU
Temperature: 4.0°C ( 39°F)
Dewpoint: 3.0°C ( 37°F) [RH = 93%]
Pressure (altimeter):29.79 inches Hg (1009.0 mb)
Winds:from the NNW (340 degrees) at 7 MPH (6 knots; 3.1 m/s)
Visibility:6 or more sm (10+ km)
Ceiling:13000 feet AGL
Clouds: few clouds at 12000 feet AGL, broken clouds at 13000 feet AGL

TAF for:EBBE (Beauvechain(AB), --, BX)
Text:No data found